createdAt,value
2022-11-17T00:01:26.191Z,13.20
2022-11-17T00:03:54.411Z,13.20
2022-11-17T00:06:24.152Z,13.20
2022-11-17T00:08:53.621Z,13.20
2022-11-17T00:11:21.833Z,13.20
2022-11-17T00:14:08.698Z,13.20
2022-11-17T00:16:37.142Z,13.20
2022-11-17T00:19:23.869Z,13.20
2022-11-17T00:21:53.823Z,13.20
2022-11-17T00:24:24.404Z,13.20
2022-11-17T00:27:04.449Z,13.20
2022-11-17T00:29:34.509Z,13.20
2022-11-17T00:32:24.811Z,13.10
2022-11-17T00:34:53.952Z,13.10
2022-11-17T00:37:24.406Z,13.10
2022-11-17T00:39:57.762Z,13.10
2022-11-17T00:42:28.768Z,13.10
2022-11-17T00:44:56.934Z,13.10
2022-11-17T00:47:25.241Z,13.10
2022-11-17T00:49:53.419Z,13.10
2022-11-17T00:52:23.259Z,13.10
2022-11-17T00:54:51.469Z,12.90
2022-11-17T00:57:19.763Z,12.90
2022-11-17T00:59:47.828Z,12.90
2022-11-17T01:02:16.130Z,12.90
2022-11-17T01:04:44.252Z,12.90
2022-11-17T01:07:12.584Z,12.90
2022-11-17T01:09:42.347Z,12.90
2022-11-17T01:12:10.749Z,12.90
2022-11-17T01:14:38.913Z,12.90
2022-11-17T01:17:07.069Z,12.90
2022-11-17T01:19:34.852Z,12.90
2022-11-17T01:22:02.700Z,12.70
2022-11-17T01:24:30.571Z,12.70
2022-11-17T01:26:59.961Z,12.70
2022-11-17T01:29:27.810Z,12.70
2022-11-17T01:31:55.728Z,12.80
2022-11-17T01:34:23.509Z,12.70
2022-11-17T01:37:10.089Z,12.40
2022-11-17T01:39:38.104Z,12.40
2022-11-17T01:42:14.642Z,12.50
2022-11-17T01:44:56.922Z,12.50
2022-11-17T01:47:32.160Z,12.50
2022-11-17T01:50:07.190Z,12.50
2022-11-17T01:52:37.560Z,12.50
2022-11-17T01:55:09.059Z,12.60
2022-11-17T01:57:42.560Z,12.50
2022-11-17T02:00:11.679Z,12.60
2022-11-17T02:02:41.580Z,12.60
2022-11-17T02:05:20.762Z,12.60
2022-11-17T02:07:52.291Z,12.60
2022-11-17T02:10:20.628Z,12.60
2022-11-17T02:12:50.830Z,12.50
2022-11-17T02:15:18.920Z,12.50
2022-11-17T02:17:46.860Z,12.40
2022-11-17T02:20:18.180Z,12.40
2022-11-17T02:23:11.790Z,12.50
2022-11-17T02:26:03.420Z,12.50
2022-11-17T02:28:35.221Z,12.50
2022-11-17T02:31:12.330Z,12.50
2022-11-17T02:33:51.416Z,12.50
2022-11-17T02:36:29.085Z,12.30
2022-11-17T02:39:05.156Z,12.30
2022-11-17T02:41:41.337Z,12.30
2022-11-17T02:44:16.353Z,12.30
2022-11-17T02:46:47.176Z,12.40
2022-11-17T02:49:20.303Z,12.40
2022-11-17T02:51:52.759Z,12.40
2022-11-17T02:54:23.223Z,12.40
2022-11-17T02:56:51.348Z,12.20
2022-11-17T02:59:25.578Z,12.30
2022-11-17T03:02:29.269Z,12.20
2022-11-17T03:05:08.707Z,12.20
2022-11-17T03:07:59.701Z,12.20
2022-11-17T03:10:35.809Z,12.10
2022-11-17T03:13:12.927Z,12.10
2022-11-17T03:15:51.028Z,12.00
2022-11-17T03:18:24.868Z,12.00
2022-11-17T03:21:05.443Z,12.10
2022-11-17T03:23:41.670Z,12.10
2022-11-17T03:26:13.058Z,12.00
2022-11-17T03:28:44.016Z,12.00
2022-11-17T03:31:15.626Z,12.10
2022-11-17T03:33:45.847Z,12.00
2022-11-17T03:36:16.260Z,12.00
2022-11-17T03:38:50.786Z,12.00
2022-11-17T03:41:20.588Z,12.00
2022-11-17T03:43:52.116Z,12.00
2022-11-17T03:46:23.247Z,12.00
2022-11-17T03:48:57.318Z,12.00
2022-11-17T03:51:28.657Z,12.00
2022-11-17T03:53:56.937Z,12.00
2022-11-17T03:56:34.757Z,12.00
2022-11-17T03:59:04.666Z,12.00
2022-11-17T04:01:35.565Z,12.00
2022-11-17T04:04:03.678Z,12.10
2022-11-17T04:06:31.563Z,12.10
2022-11-17T04:08:59.498Z,12.10
2022-11-17T04:11:45.608Z,12.10
2022-11-17T04:14:31.966Z,12.00
2022-11-17T04:17:01.428Z,12.00
2022-11-17T04:19:29.251Z,12.00
2022-11-17T04:21:57.247Z,12.10
2022-11-17T04:24:25.257Z,12.10
2022-11-17T04:27:11.845Z,12.00
2022-11-17T04:29:40.036Z,12.00
2022-11-17T04:32:09.436Z,12.00
2022-11-17T04:34:39.106Z,12.00
2022-11-17T04:37:17.565Z,12.00
2022-11-17T04:39:46.140Z,12.00
2022-11-17T04:42:13.978Z,12.00
2022-11-17T04:44:42.056Z,12.00
2022-11-17T04:47:11.346Z,12.00
2022-11-17T04:49:39.437Z,12.00
2022-11-17T04:52:07.280Z,12.00
2022-11-17T04:54:35.287Z,12.00
2022-11-17T04:57:03.185Z,12.00
2022-11-17T04:59:31.167Z,12.00
2022-11-17T05:02:05.306Z,12.00
2022-11-17T05:04:53.870Z,12.00
2022-11-17T05:07:21.941Z,11.90
2022-11-17T05:09:49.917Z,12.00
2022-11-17T05:12:46.861Z,12.00
2022-11-17T05:15:37.465Z,12.00
2022-11-17T05:18:05.275Z,12.00
2022-11-17T05:20:35.128Z,12.00
2022-11-17T05:23:21.508Z,11.90
2022-11-17T05:25:53.416Z,11.90
2022-11-17T05:28:21.256Z,11.90
2022-11-17T05:30:49.006Z,11.80
2022-11-17T05:33:17.019Z,11.80
2022-11-17T05:35:46.115Z,11.90
2022-11-17T05:38:18.863Z,11.80
2022-11-17T05:40:46.610Z,11.90
2022-11-17T05:43:14.312Z,11.80
2022-11-17T05:45:42.240Z,11.80
2022-11-17T05:48:09.814Z,11.90
2022-11-17T05:50:37.661Z,11.90
2022-11-17T05:53:06.928Z,11.90
2022-11-17T05:55:35.007Z,11.70
2022-11-17T05:58:06.876Z,11.80
2022-11-17T06:00:36.506Z,11.80
2022-11-17T06:03:08.392Z,11.80
2022-11-17T06:05:36.110Z,11.80
2022-11-17T06:08:03.919Z,11.70
2022-11-17T06:10:34.676Z,11.70
2022-11-17T06:13:02.305Z,11.80
2022-11-17T06:15:30.559Z,11.80
2022-11-17T06:18:02.536Z,11.80
2022-11-17T06:20:34.899Z,11.80
2022-11-17T06:23:05.967Z,11.70
2022-11-17T06:25:36.979Z,11.80
2022-11-17T06:28:10.331Z,11.80
2022-11-17T06:30:39.021Z,11.80
2022-11-17T06:33:08.300Z,11.80
2022-11-17T06:35:36.722Z,11.80
2022-11-17T06:38:04.485Z,11.80
2022-11-17T06:40:32.252Z,11.80
2022-11-17T06:43:06.783Z,11.90
2022-11-17T06:45:34.530Z,11.90
2022-11-17T06:48:02.524Z,11.90
2022-11-17T06:50:30.150Z,12.00
2022-11-17T06:52:58.458Z,12.00
2022-11-17T06:55:26.647Z,12.00
2022-11-17T06:58:01.658Z,12.00
2022-11-17T07:00:30.804Z,12.00
2022-11-17T07:03:02.774Z,12.00
2022-11-17T07:05:30.961Z,12.00
2022-11-17T07:08:01.075Z,12.00
2022-11-17T07:10:29.855Z,12.00
2022-11-17T07:12:57.615Z,12.00
2022-11-17T07:15:27.121Z,12.00
2022-11-17T07:17:54.828Z,12.00
2022-11-17T07:20:22.670Z,12.10
2022-11-17T07:22:50.527Z,12.10
2022-11-17T07:25:22.225Z,12.10
2022-11-17T07:27:58.352Z,12.10
2022-11-17T07:30:27.865Z,12.10
2022-11-17T07:32:55.623Z,12.10
2022-11-17T07:35:23.303Z,12.10
2022-11-17T07:37:51.174Z,12.20
2022-11-17T07:40:19.253Z,12.20
2022-11-17T07:42:49.694Z,12.30
2022-11-17T07:45:18.328Z,12.40
2022-11-17T07:47:53.461Z,12.40
2022-11-17T07:50:21.687Z,12.50
2022-11-17T07:52:49.984Z,12.50
2022-11-17T07:55:18.208Z,12.50
2022-11-17T07:57:46.386Z,12.60
2022-11-17T08:00:15.456Z,12.60
2022-11-17T08:02:43.293Z,12.70
2022-11-17T08:05:12.678Z,12.70
2022-11-17T08:07:40.384Z,12.70
2022-11-17T08:10:08.820Z,12.70
2022-11-17T08:12:36.889Z,12.70
2022-11-17T08:15:05.374Z,12.70
2022-11-17T08:17:33.159Z,12.70
2022-11-17T08:20:01.105Z,12.70
2022-11-17T08:22:30.239Z,12.80
2022-11-17T08:24:58.180Z,12.80
2022-11-17T08:27:26.666Z,12.80
2022-11-17T08:29:54.446Z,12.80
2022-11-17T08:32:22.649Z,12.80
2022-11-17T08:34:50.491Z,12.90
2022-11-17T08:37:18.143Z,12.90
2022-11-17T08:39:47.443Z,12.90
2022-11-17T08:42:16.828Z,13.00
2022-11-17T08:44:45.454Z,13.00
2022-11-17T08:47:13.048Z,13.00
2022-11-17T08:49:40.871Z,13.00
2022-11-17T08:52:08.724Z,13.00
2022-11-17T08:54:36.589Z,13.00
2022-11-17T08:57:05.633Z,13.10
2022-11-17T08:59:33.383Z,13.10
2022-11-17T09:02:01.156Z,13.10
2022-11-17T09:04:28.874Z,13.00
2022-11-17T09:06:56.657Z,13.00
2022-11-17T09:09:24.702Z,13.00
2022-11-17T09:11:52.461Z,13.00
2022-11-17T09:14:21.752Z,13.00
2022-11-17T09:16:50.049Z,13.00
2022-11-17T09:19:18.610Z,13.00
2022-11-17T09:21:46.592Z,13.00
2022-11-17T09:24:14.845Z,12.90
2022-11-17T09:26:43.382Z,12.90
2022-11-17T09:29:11.494Z,12.90
2022-11-17T09:31:41.285Z,13.00
2022-11-17T09:34:09.628Z,13.00
2022-11-17T09:36:37.793Z,13.00
2022-11-17T09:39:06.093Z,13.00
2022-11-17T09:41:38.601Z,13.00
2022-11-17T09:44:16.100Z,13.00
2022-11-17T09:47:03.372Z,13.00
2022-11-17T09:49:37.510Z,13.10
2022-11-17T09:52:13.542Z,13.00
2022-11-17T09:54:47.750Z,13.00
2022-11-17T09:57:25.281Z,13.10
2022-11-17T10:00:02.390Z,13.10
2022-11-17T10:02:34.604Z,13.10
2022-11-17T10:05:03.091Z,13.10
2022-11-17T10:07:33.931Z,13.10
2022-11-17T10:10:06.211Z,13.20
2022-11-17T10:12:42.347Z,13.30
2022-11-17T10:15:26.011Z,13.40
2022-11-17T10:17:55.720Z,13.50
2022-11-17T10:20:23.891Z,13.70
2022-11-17T10:22:54.285Z,13.80
2022-11-17T10:25:35.552Z,13.90
2022-11-17T10:28:04.114Z,14.10
2022-11-17T10:30:32.225Z,14.20
2022-11-17T10:33:02.781Z,14.20
2022-11-17T10:35:32.766Z,14.30
2022-11-17T10:38:02.939Z,14.30
2022-11-17T10:40:32.331Z,14.30
2022-11-17T10:43:26.648Z,14.30
2022-11-17T10:45:57.256Z,14.30
2022-11-17T10:48:29.945Z,14.40
2022-11-17T10:50:59.737Z,14.40
2022-11-17T10:53:37.044Z,14.40
2022-11-17T10:56:16.124Z,14.50
2022-11-17T10:59:02.662Z,14.60
2022-11-17T11:01:32.943Z,14.60
2022-11-17T11:04:03.675Z,14.60
2022-11-17T11:06:33.416Z,14.60
2022-11-17T11:09:05.055Z,14.70
2022-11-17T11:11:45.385Z,14.70
2022-11-17T11:14:19.803Z,14.60
2022-11-17T11:16:50.612Z,14.60
2022-11-17T11:19:21.617Z,14.60
2022-11-17T11:22:21.424Z,14.70
2022-11-17T11:24:58.482Z,14.80
2022-11-17T11:27:42.403Z,15.00
2022-11-17T11:30:12.418Z,15.10
2022-11-17T11:32:56.833Z,15.20
2022-11-17T11:36:03.070Z,15.20
2022-11-17T11:38:50.554Z,15.20
2022-11-17T11:41:31.884Z,15.30
2022-11-17T11:44:17.960Z,15.20
2022-11-17T11:46:53.626Z,15.10
2022-11-17T11:49:32.829Z,15.10
2022-11-17T11:52:03.352Z,15.10
2022-11-17T11:54:41.544Z,15.10
2022-11-17T11:57:14.295Z,15.10
2022-11-17T11:59:50.965Z,15.30
2022-11-17T12:02:24.116Z,15.50
2022-11-17T12:05:00.284Z,15.50
2022-11-17T12:07:35.186Z,15.60
2022-11-17T12:10:11.366Z,15.70
2022-11-17T12:12:41.474Z,15.60
2022-11-17T12:15:29.989Z,15.60
2022-11-17T12:18:05.398Z,15.60
2022-11-17T12:21:12.045Z,15.60
2022-11-17T12:24:08.717Z,15.60
2022-11-17T12:26:39.196Z,15.70
2022-11-17T12:29:46.783Z,16.10
2022-11-17T12:32:53.405Z,16.40
2022-11-17T12:35:27.137Z,16.50
2022-11-17T12:38:37.325Z,16.50
2022-11-17T12:41:06.670Z,16.30
2022-11-17T12:43:36.284Z,16.20
2022-11-17T12:46:27.175Z,16.10
2022-11-17T12:49:03.990Z,16.10
2022-11-17T12:51:39.784Z,16.10
2022-11-17T12:54:21.065Z,16.10
2022-11-17T12:56:57.834Z,16.10
2022-11-17T13:00:02.615Z,16.30
2022-11-17T13:02:53.441Z,16.40
2022-11-17T13:05:31.065Z,16.30
2022-11-17T13:08:21.455Z,16.20
2022-11-17T13:10:50.197Z,16.20
2022-11-17T13:13:19.843Z,16.20
2022-11-17T13:15:52.634Z,16.50
2022-11-17T13:18:30.885Z,16.50
2022-11-17T13:20:59.563Z,16.70
2022-11-17T13:23:28.894Z,17.00
2022-11-17T13:26:10.554Z,17.20
2022-11-17T13:28:38.624Z,17.20
2022-11-17T13:31:14.153Z,17.00
2022-11-17T13:33:42.109Z,16.80
2022-11-17T13:36:17.933Z,16.70
2022-11-17T13:39:21.650Z,16.60
2022-11-17T13:41:52.254Z,16.50
2022-11-17T13:44:24.155Z,16.50
2022-11-17T13:46:53.546Z,16.60
2022-11-17T13:49:34.333Z,16.60
2022-11-17T13:52:02.490Z,16.60
2022-11-17T13:54:30.627Z,16.60
2022-11-17T13:57:04.316Z,16.70
2022-11-17T13:59:35.085Z,16.80
2022-11-17T14:02:31.282Z,17.00
2022-11-17T14:05:23.195Z,16.90
2022-11-17T14:07:51.643Z,16.80
2022-11-17T14:10:34.926Z,16.70
2022-11-17T14:13:30.103Z,16.60
2022-11-17T14:16:00.207Z,16.50
2022-11-17T14:18:32.799Z,16.50
2022-11-17T14:21:13.344Z,16.50
2022-11-17T14:23:42.030Z,16.40
2022-11-17T14:26:20.344Z,16.40
2022-11-17T14:28:49.431Z,16.40
2022-11-17T14:31:17.173Z,16.40
2022-11-17T14:33:46.766Z,16.40
2022-11-17T14:36:17.483Z,16.50
2022-11-17T14:38:46.151Z,16.50
2022-11-17T14:41:15.814Z,16.50
2022-11-17T14:43:43.646Z,16.50
2022-11-17T14:46:19.450Z,16.50
2022-11-17T14:48:48.677Z,16.40
2022-11-17T14:51:16.466Z,16.40
2022-11-17T14:53:44.399Z,16.40
2022-11-17T14:56:14.628Z,16.40
2022-11-17T14:58:42.603Z,16.40
2022-11-17T15:01:11.866Z,16.40
2022-11-17T15:03:39.619Z,16.40
2022-11-17T15:06:12.111Z,16.40
2022-11-17T15:08:44.311Z,16.40
2022-11-17T15:11:16.073Z,16.40
2022-11-17T15:13:44.095Z,16.40
2022-11-17T15:16:12.313Z,16.30
2022-11-17T15:18:40.352Z,16.70
2022-11-17T15:21:11.220Z,16.60
2022-11-17T15:23:40.393Z,17.10
2022-11-17T15:26:10.602Z,17.00
2022-11-17T15:28:38.481Z,16.70
2022-11-17T15:31:11.692Z,16.60
2022-11-17T15:33:40.982Z,16.50
2022-11-17T15:36:11.973Z,16.30
2022-11-17T15:38:40.712Z,16.30
2022-11-17T15:41:10.522Z,16.20
2022-11-17T15:43:40.251Z,16.10
2022-11-17T15:46:09.524Z,16.00
2022-11-17T15:48:44.474Z,15.90
2022-11-17T15:51:15.732Z,15.90
2022-11-17T15:53:44.781Z,15.90
2022-11-17T15:56:14.432Z,15.80
2022-11-17T15:58:43.593Z,15.80
2022-11-17T16:01:13.671Z,15.70
2022-11-17T16:03:43.042Z,15.70
2022-11-17T16:06:13.752Z,15.60
2022-11-17T16:08:41.662Z,15.50
2022-11-17T16:11:10.706Z,15.50
2022-11-17T16:13:39.105Z,15.40
2022-11-17T16:16:08.173Z,15.40
2022-11-17T16:18:38.824Z,15.40
2022-11-17T16:21:08.405Z,15.30
2022-11-17T16:23:42.462Z,15.30
2022-11-17T16:26:11.352Z,15.20
2022-11-17T16:28:39.543Z,15.20
2022-11-17T16:31:16.042Z,15.20
2022-11-17T16:33:48.977Z,15.10
2022-11-17T16:36:17.201Z,15.10
2022-11-17T16:39:00.539Z,15.10
2022-11-17T16:41:31.670Z,15.10
2022-11-17T16:44:15.697Z,15.00
2022-11-17T16:46:44.913Z,15.00
2022-11-17T16:49:14.531Z,15.00
2022-11-17T16:51:47.520Z,15.00
2022-11-17T16:54:18.129Z,15.00
2022-11-17T16:56:46.167Z,14.90
2022-11-17T16:59:14.951Z,14.90
2022-11-17T17:01:42.972Z,14.90
2022-11-17T17:04:12.583Z,14.90
2022-11-17T17:06:41.111Z,14.80
2022-11-17T17:09:10.328Z,14.80
2022-11-17T17:11:39.589Z,14.80
2022-11-17T17:14:09.122Z,14.80
2022-11-17T17:16:40.315Z,14.80
2022-11-17T17:19:11.695Z,14.70
2022-11-17T17:21:41.656Z,14.70
2022-11-17T17:24:10.261Z,14.80
2022-11-17T17:26:40.771Z,14.70
2022-11-17T17:29:09.014Z,14.70
2022-11-17T17:31:51.804Z,14.60
2022-11-17T17:34:19.783Z,14.60
2022-11-17T17:36:47.507Z,14.70
2022-11-17T17:39:16.065Z,14.60
2022-11-17T17:41:46.165Z,14.60
2022-11-17T17:44:16.724Z,14.60
2022-11-17T17:46:45.200Z,14.60
2022-11-17T17:49:13.676Z,14.50
2022-11-17T17:51:44.441Z,14.50
2022-11-17T17:54:16.724Z,14.50
2022-11-17T17:56:47.107Z,14.50
2022-11-17T17:59:16.149Z,14.40
2022-11-17T18:01:46.355Z,14.40
2022-11-17T18:04:16.103Z,14.40
2022-11-17T18:06:48.901Z,14.30
2022-11-17T18:09:20.493Z,14.30
2022-11-17T18:11:51.279Z,14.30
2022-11-17T18:14:24.570Z,14.30
2022-11-17T18:16:53.562Z,14.20
2022-11-17T18:19:21.306Z,14.20
2022-11-17T18:21:49.148Z,14.20
2022-11-17T18:24:16.806Z,14.20
2022-11-17T18:26:51.539Z,14.20
2022-11-17T18:29:19.805Z,14.10
2022-11-17T18:31:49.533Z,14.20
2022-11-17T18:34:21.284Z,14.10
2022-11-17T18:36:49.687Z,14.10
2022-11-17T18:39:18.351Z,14.10
2022-11-17T18:41:47.255Z,14.10
2022-11-17T18:44:21.318Z,14.10
2022-11-17T18:47:01.194Z,14.10
2022-11-17T18:49:31.533Z,14.10
2022-11-17T18:51:59.237Z,14.10
2022-11-17T18:54:27.063Z,14.10
2022-11-17T18:56:54.726Z,14.10
2022-11-17T18:59:24.011Z,14.00
2022-11-17T19:01:52.465Z,14.10
2022-11-17T19:04:20.345Z,14.10
2022-11-17T19:06:48.001Z,14.00
2022-11-17T19:09:16.408Z,14.00
2022-11-17T19:11:44.627Z,14.00
2022-11-17T19:14:12.420Z,14.00
2022-11-17T19:16:44.752Z,14.10
2022-11-17T19:19:14.248Z,14.10
2022-11-17T19:21:42.871Z,14.10
2022-11-17T19:24:11.437Z,14.10
2022-11-17T19:26:39.735Z,14.10
2022-11-17T19:29:21.315Z,14.10
2022-11-17T19:31:52.699Z,14.10
2022-11-17T19:34:20.660Z,14.10
2022-11-17T19:36:48.466Z,14.10
2022-11-17T19:39:17.232Z,14.10
2022-11-17T19:41:54.389Z,14.10
2022-11-17T19:44:22.442Z,14.10
2022-11-17T19:46:53.542Z,14.10
2022-11-17T19:49:21.575Z,14.10
2022-11-17T19:51:49.392Z,14.10
2022-11-17T19:54:17.442Z,14.10
2022-11-17T19:56:45.272Z,14.10
2022-11-17T19:59:16.334Z,14.10
2022-11-17T20:01:45.609Z,14.10
2022-11-17T20:04:15.442Z,14.20
2022-11-17T20:06:43.916Z,14.20
2022-11-17T20:09:13.393Z,14.20
2022-11-17T20:11:42.089Z,14.20
2022-11-17T20:14:10.982Z,14.20
2022-11-17T20:16:39.139Z,14.20
2022-11-17T20:19:07.342Z,14.10
2022-11-17T20:21:37.122Z,14.00
2022-11-17T20:24:05.144Z,14.00
2022-11-17T20:26:35.840Z,14.00
2022-11-17T20:29:03.815Z,14.10
2022-11-17T20:31:34.229Z,14.10
2022-11-17T20:34:03.784Z,14.10
2022-11-17T20:36:33.520Z,14.10
2022-11-17T20:39:04.720Z,14.10
2022-11-17T20:41:32.789Z,14.10
2022-11-17T20:44:02.753Z,14.10
2022-11-17T20:46:30.897Z,14.10
2022-11-17T20:48:59.227Z,14.20
2022-11-17T20:51:27.275Z,14.10
2022-11-17T20:53:55.224Z,14.10
2022-11-17T20:56:24.546Z,14.10
2022-11-17T20:58:52.481Z,14.20
2022-11-17T21:01:24.832Z,14.20
2022-11-17T21:03:53.186Z,14.20
2022-11-17T21:06:23.631Z,14.20
2022-11-17T21:08:53.041Z,14.20
2022-11-17T21:11:42.876Z,14.20
2022-11-17T21:14:12.340Z,14.20
2022-11-17T21:16:42.303Z,14.10
2022-11-17T21:19:10.741Z,14.10
2022-11-17T21:21:38.881Z,14.10
2022-11-17T21:24:08.260Z,14.10
2022-11-17T21:26:38.422Z,14.20
2022-11-17T21:29:07.250Z,14.20
2022-11-17T21:31:35.564Z,14.20
2022-11-17T21:34:06.368Z,14.20
2022-11-17T21:36:35.872Z,14.20
2022-11-17T21:39:04.704Z,14.20
2022-11-17T21:41:38.672Z,14.20
2022-11-17T21:44:08.401Z,14.20
2022-11-17T21:46:36.649Z,14.20
2022-11-17T21:49:05.055Z,14.20
2022-11-17T21:51:34.400Z,14.20
2022-11-17T21:54:04.708Z,14.30
2022-11-17T21:56:33.111Z,14.20
2022-11-17T21:59:03.211Z,14.30
2022-11-17T22:01:34.188Z,14.30
2022-11-17T22:04:02.377Z,14.30
2022-11-17T22:06:30.797Z,14.30
2022-11-17T22:09:00.166Z,14.20
2022-11-17T22:11:36.852Z,14.30
2022-11-17T22:14:07.554Z,14.20
2022-11-17T22:16:39.091Z,14.20
2022-11-17T22:19:08.217Z,14.20
2022-11-17T22:21:36.919Z,14.20
2022-11-17T22:24:05.952Z,14.20
2022-11-17T22:26:36.178Z,14.20
2022-11-17T22:29:04.763Z,14.20
2022-11-17T22:31:32.847Z,14.20
2022-11-17T22:34:02.201Z,14.20
2022-11-17T22:36:30.387Z,14.20
2022-11-17T22:38:58.358Z,14.20
2022-11-17T22:41:26.592Z,14.10
2022-11-17T22:43:56.081Z,14.10
2022-11-17T22:46:25.904Z,14.10
2022-11-17T22:48:55.082Z,14.10
2022-11-17T22:51:48.561Z,14.10
2022-11-17T22:54:16.572Z,14.10
2022-11-17T22:56:44.404Z,14.10
2022-11-17T22:59:12.392Z,14.10
2022-11-17T23:01:40.211Z,14.00
2022-11-17T23:04:08.377Z,14.00
2022-11-17T23:06:37.792Z,14.00
2022-11-17T23:09:05.953Z,14.00
2022-11-17T23:11:38.307Z,14.00
2022-11-17T23:14:08.334Z,14.00
2022-11-17T23:16:37.015Z,14.00
2022-11-17T23:19:05.945Z,14.00
2022-11-17T23:21:34.201Z,14.00
2022-11-17T23:24:05.043Z,13.90
2022-11-17T23:26:33.193Z,13.90
2022-11-17T23:29:01.143Z,13.90
2022-11-17T23:31:29.843Z,13.90
2022-11-17T23:33:57.994Z,13.90
2022-11-17T23:36:26.173Z,13.90
2022-11-17T23:38:56.926Z,14.00
2022-11-17T23:41:26.833Z,14.00
2022-11-17T23:43:55.045Z,14.00
2022-11-17T23:46:25.462Z,14.00
2022-11-17T23:48:54.691Z,13.90
2022-11-17T23:51:24.641Z,13.90
2022-11-17T23:53:53.065Z,13.90
2022-11-17T23:56:21.905Z,13.90
2022-11-17T23:58:52.282Z,13.90
